createdAt,value
2018-12-12T00:04:48.171Z,88.92
2018-12-12T00:09:50.427Z,89.36
2018-12-12T00:14:52.708Z,89.40
2018-12-12T00:19:54.943Z,89.66
2018-12-12T00:24:57.372Z,90.81
2018-12-12T00:29:59.630Z,91.24
2018-12-12T00:35:01.915Z,91.43
2018-12-12T00:40:04.418Z,91.39
2018-12-12T00:45:06.892Z,91.57
2018-12-12T00:50:09.253Z,93.00
2018-12-12T00:55:11.495Z,92.86
2018-12-12T01:00:13.776Z,92.93
2018-12-12T01:05:16.068Z,93.01
2018-12-12T01:10:18.429Z,93.85
2018-12-12T01:15:20.728Z,93.73
2018-12-12T01:20:23.140Z,94.02
2018-12-12T01:25:25.435Z,94.00
2018-12-12T01:30:27.686Z,93.98
2018-12-12T01:35:30.115Z,94.31
2018-12-12T01:40:32.396Z,94.47
2018-12-12T01:45:34.646Z,94.72
2018-12-12T01:50:36.903Z,94.43
2018-12-12T01:55:39.163Z,94.30
2018-12-12T02:00:41.428Z,95.17
2018-12-12T02:05:43.957Z,95.40
2018-12-12T02:10:46.543Z,94.91
2018-12-12T02:15:48.831Z,94.77
2018-12-12T02:20:51.087Z,95.16
2018-12-12T02:25:53.365Z,95.72
2018-12-12T02:30:56.929Z,95.60
2018-12-12T02:35:59.573Z,95.56
2018-12-12T02:41:01.837Z,96.01
2018-12-12T02:46:04.117Z,96.25
2018-12-12T02:51:06.387Z,96.05
2018-12-12T02:56:08.686Z,96.27
2018-12-12T03:01:10.945Z,96.52
2018-12-12T03:06:13.256Z,96.49
2018-12-12T03:11:20.118Z,96.75
2018-12-12T03:16:22.421Z,96.85
2018-12-12T03:21:24.806Z,97.17
2018-12-12T03:26:27.118Z,96.95
2018-12-12T03:31:29.386Z,97.54
2018-12-12T03:36:31.662Z,97.69
2018-12-12T03:41:33.964Z,97.32
2018-12-12T03:46:36.227Z,96.71
2018-12-12T03:51:38.488Z,96.84
2018-12-12T03:56:42.877Z,96.56
2018-12-12T04:01:45.171Z,95.49
2018-12-12T04:06:47.435Z,94.93
2018-12-12T04:11:49.761Z,95.63
2018-12-12T04:16:52.043Z,95.50
2018-12-12T04:21:54.437Z,94.16
2018-12-12T04:26:56.689Z,93.48
2018-12-12T04:31:58.987Z,93.64
2018-12-12T04:37:01.270Z,94.44
2018-12-12T04:42:03.934Z,93.92
2018-12-12T04:47:06.239Z,94.49
2018-12-12T04:52:08.678Z,95.07
2018-12-12T04:57:12.256Z,94.20
2018-12-12T05:02:19.350Z,93.79
2018-12-12T05:07:21.597Z,93.44
2018-12-12T05:12:24.060Z,92.84
2018-12-12T05:17:26.360Z,93.23
2018-12-12T05:22:28.681Z,92.87
2018-12-12T05:27:30.924Z,93.62
2018-12-12T05:32:33.143Z,93.46
2018-12-12T05:37:35.374Z,93.69
2018-12-12T05:42:37.848Z,93.68
2018-12-12T05:47:40.078Z,93.97
2018-12-12T05:52:42.311Z,93.82
2018-12-12T05:57:44.581Z,93.86
2018-12-12T06:02:46.894Z,93.50
2018-12-12T06:07:49.739Z,93.34
2018-12-12T06:12:52.034Z,94.02
2018-12-12T06:17:54.421Z,93.75
2018-12-12T06:22:56.669Z,94.67
2018-12-12T06:27:59.037Z,94.72
2018-12-12T06:33:01.312Z,94.29
2018-12-12T06:38:03.680Z,94.37
2018-12-12T06:43:05.988Z,94.76
2018-12-12T06:48:08.230Z,94.96
2018-12-12T06:53:10.489Z,95.09
2018-12-12T06:58:12.751Z,95.35
2018-12-12T07:03:14.999Z,94.27
2018-12-12T07:08:17.277Z,94.05
2018-12-12T07:13:19.573Z,93.98
2018-12-12T07:18:21.868Z,94.68
2018-12-12T07:23:24.110Z,95.50
2018-12-12T07:28:27.303Z,95.86
2018-12-12T07:33:29.803Z,96.17
2018-12-12T07:38:32.063Z,96.19
2018-12-12T07:43:34.566Z,96.16
2018-12-12T07:48:43.054Z,96.75
2018-12-12T07:53:51.321Z,97.08
2018-12-12T07:58:53.607Z,96.42
2018-12-12T08:03:55.873Z,96.73
2018-12-12T08:08:58.203Z,96.64
2018-12-12T08:14:00.508Z,96.98
2018-12-12T08:19:03.265Z,97.14
2018-12-12T08:24:05.637Z,97.14
2018-12-12T08:29:07.886Z,97.64
2018-12-12T08:34:10.148Z,97.43
2018-12-12T08:39:12.384Z,97.04
2018-12-12T08:44:14.730Z,96.87
2018-12-12T08:49:16.981Z,97.79
2018-12-12T08:54:19.253Z,97.91
2018-12-12T08:59:21.636Z,97.79
2018-12-12T09:04:23.901Z,98.00
2018-12-12T09:09:26.159Z,98.01
2018-12-12T09:14:28.488Z,97.70
2018-12-12T09:19:30.726Z,97.65
2018-12-12T09:24:33.114Z,97.51
2018-12-12T09:29:35.429Z,98.12
2018-12-12T09:34:41.503Z,98.01
2018-12-12T09:39:43.780Z,97.01
2018-12-12T09:44:46.408Z,96.73
2018-12-12T09:49:48.745Z,96.46
2018-12-12T09:54:53.012Z,95.76
2018-12-12T09:59:55.292Z,95.94
2018-12-12T10:04:57.628Z,94.25
2018-12-12T10:09:59.917Z,93.23
2018-12-12T10:15:02.409Z,94.30
2018-12-12T10:20:06.650Z,93.85
2018-12-12T10:25:09.090Z,92.67
2018-12-12T10:30:11.350Z,92.75
2018-12-12T10:35:14.576Z,91.89
2018-12-12T10:40:17.108Z,92.34
2018-12-12T10:45:20.504Z,91.71
2018-12-12T10:50:22.770Z,92.97
2018-12-12T10:55:25.213Z,92.87
2018-12-12T11:06:00.899Z,92.28
2018-12-12T11:11:03.251Z,93.21
2018-12-12T11:16:05.685Z,93.27
2018-12-12T11:21:09.082Z,91.59
2018-12-12T11:26:11.340Z,92.36
2018-12-12T11:31:13.575Z,91.51
2018-12-12T11:36:15.933Z,91.78
2018-12-12T11:41:18.234Z,91.33
2018-12-12T11:46:20.543Z,91.14
2018-12-12T11:51:22.775Z,89.83
2018-12-12T11:56:25.159Z,90.95
2018-12-12T12:01:27.571Z,91.37
2018-12-12T12:06:29.825Z,91.28
2018-12-12T12:11:32.047Z,91.88
2018-12-12T12:16:36.391Z,90.89
2018-12-12T12:21:38.734Z,91.02
2018-12-12T12:26:40.999Z,91.73
2018-12-12T12:31:43.240Z,91.03
2018-12-12T12:36:46.449Z,90.16
2018-12-12T12:41:48.796Z,90.09
2018-12-12T12:46:51.121Z,90.98
2018-12-12T12:51:53.992Z,90.18
2018-12-12T12:56:56.601Z,90.45
2018-12-12T13:01:58.851Z,88.85
2018-12-12T13:07:01.097Z,90.25
2018-12-12T13:12:03.592Z,90.29
2018-12-12T13:17:06.084Z,90.19
2018-12-12T13:22:08.328Z,90.67
2018-12-12T13:27:10.660Z,90.75
2018-12-12T13:32:12.895Z,90.99
2018-12-12T13:37:15.616Z,90.14
2018-12-12T13:42:18.694Z,90.79
2018-12-12T13:47:21.101Z,91.32
2018-12-12T13:52:23.383Z,90.87
2018-12-12T13:57:25.653Z,90.94
2018-12-12T14:02:27.903Z,91.39
2018-12-12T14:07:30.143Z,91.47
2018-12-12T14:12:32.484Z,91.33
2018-12-12T14:17:34.821Z,91.52
2018-12-12T14:22:37.094Z,90.66
2018-12-12T14:27:39.365Z,90.79
2018-12-12T14:32:41.737Z,90.97
2018-12-12T14:37:43.994Z,91.00
2018-12-12T14:42:46.247Z,91.32
2018-12-12T14:47:48.546Z,92.14
2018-12-12T14:52:50.787Z,92.73
2018-12-12T14:57:53.024Z,92.41
2018-12-12T15:02:55.317Z,92.32
2018-12-12T15:07:57.644Z,92.47
2018-12-12T15:13:00.072Z,92.74
2018-12-12T15:18:02.467Z,92.44
2018-12-12T15:23:04.973Z,92.39
2018-12-12T15:28:07.546Z,92.03
2018-12-12T15:33:09.791Z,91.96
2018-12-12T15:38:12.244Z,92.11
2018-12-12T15:43:14.914Z,92.65
2018-12-12T15:48:18.732Z,92.42
2018-12-12T15:53:20.992Z,92.20
2018-12-12T15:58:23.694Z,93.11
2018-12-12T16:03:26.532Z,92.42
2018-12-12T16:08:28.864Z,92.95
2018-12-12T16:13:31.429Z,93.23
2018-12-12T16:18:33.737Z,93.28
2018-12-12T16:23:37.203Z,92.71
2018-12-12T16:28:39.805Z,92.64
2018-12-12T16:33:42.331Z,93.10
2018-12-12T16:38:45.181Z,93.08
2018-12-12T16:43:47.883Z,93.59
2018-12-12T16:48:52.618Z,93.21
2018-12-12T16:53:54.915Z,93.49
2018-12-12T16:58:57.590Z,94.12
2018-12-12T17:03:59.859Z,93.99
2018-12-12T17:09:04.013Z,94.53
2018-12-12T17:14:07.711Z,93.82
2018-12-12T17:19:10.055Z,94.31
2018-12-12T17:24:12.338Z,93.77
2018-12-12T17:29:14.601Z,93.62
2018-12-12T17:34:16.860Z,93.76
2018-12-12T17:39:19.375Z,93.85
2018-12-12T17:44:22.557Z,93.45
2018-12-12T17:49:25.013Z,93.98
2018-12-12T17:54:27.287Z,93.58
2018-12-12T17:59:29.645Z,93.74
2018-12-12T18:04:33.345Z,93.47
2018-12-12T18:09:35.576Z,94.28
2018-12-12T18:14:37.966Z,94.38
2018-12-12T18:19:42.389Z,94.49
2018-12-12T18:24:44.969Z,95.28
2018-12-12T18:29:47.303Z,94.96
2018-12-12T18:34:51.622Z,94.57
2018-12-12T18:39:53.930Z,93.99
2018-12-12T18:44:58.302Z,94.22
2018-12-12T18:50:00.575Z,94.48
2018-12-12T18:55:05.017Z,94.10
2018-12-12T19:00:09.567Z,94.11
2018-12-12T19:05:11.984Z,94.16
2018-12-12T19:10:14.457Z,93.54
2018-12-12T19:15:16.773Z,94.25
2018-12-12T19:20:19.159Z,93.83
2018-12-12T19:25:21.621Z,94.26
2018-12-12T19:30:23.908Z,93.40
2018-12-12T19:35:26.666Z,94.56
2018-12-12T19:40:28.989Z,94.30
2018-12-12T19:45:31.251Z,94.34
2018-12-12T19:50:34.587Z,93.87
2018-12-12T19:55:36.860Z,93.95
2018-12-12T20:00:39.175Z,93.73
2018-12-12T20:05:41.626Z,93.84
2018-12-12T20:10:45.305Z,94.05
2018-12-12T20:15:47.714Z,94.80
2018-12-12T20:20:50.089Z,94.93
2018-12-12T20:25:52.347Z,95.36
2018-12-12T20:30:55.776Z,94.57
2018-12-12T20:35:58.033Z,94.02
2018-12-12T20:41:00.317Z,94.37
2018-12-12T20:46:02.794Z,94.65
2018-12-12T20:51:05.083Z,94.30
2018-12-12T20:56:07.368Z,94.83
2018-12-12T21:01:09.639Z,94.97
2018-12-12T21:06:11.920Z,95.11
2018-12-12T21:11:14.739Z,94.95
2018-12-12T21:16:18.127Z,94.81
2018-12-12T21:21:20.412Z,94.58
2018-12-12T21:26:23.056Z,95.10
2018-12-12T21:31:25.377Z,94.55
2018-12-12T21:36:28.096Z,93.90
2018-12-12T21:41:30.337Z,94.29
2018-12-12T21:46:32.626Z,93.14
2018-12-12T21:51:35.560Z,93.78
2018-12-12T21:56:37.814Z,93.75
2018-12-12T22:01:40.072Z,93.29
2018-12-12T22:06:42.357Z,93.16
2018-12-12T22:11:44.622Z,93.40
2018-12-12T22:16:47.544Z,93.51
2018-12-12T22:21:50.079Z,93.47
2018-12-12T22:26:52.334Z,93.69
2018-12-12T22:31:54.599Z,92.75
2018-12-12T22:36:57.045Z,92.92
2018-12-12T22:41:59.419Z,92.57
2018-12-12T22:47:01.758Z,92.68
2018-12-12T22:52:04.174Z,91.44
2018-12-12T22:57:06.547Z,90.45
2018-12-12T23:02:08.791Z,91.88
2018-12-12T23:07:11.255Z,91.39
2018-12-12T23:12:13.711Z,91.49
2018-12-12T23:17:16.159Z,91.65
2018-12-12T23:22:18.512Z,91.19
2018-12-12T23:27:20.756Z,91.53
2018-12-12T23:32:23.055Z,91.58
2018-12-12T23:37:25.279Z,92.49
2018-12-12T23:42:27.530Z,92.30
2018-12-12T23:47:29.771Z,91.56
2018-12-12T23:52:32.031Z,92.75
2018-12-12T23:57:34.279Z,92.90
